createdAt,value
2018-12-25T00:00:54.699Z,9.77
2018-12-25T00:03:23.972Z,9.93
2018-12-25T00:05:53.275Z,10.80
2018-12-25T00:08:22.981Z,10.20
2018-12-25T00:10:52.334Z,9.53
2018-12-25T00:13:21.842Z,9.47
2018-12-25T00:15:51.159Z,9.13
2018-12-25T00:18:20.440Z,9.37
2018-12-25T00:20:49.983Z,8.87
2018-12-25T00:23:19.275Z,8.00
2018-12-25T00:25:48.804Z,9.40
2018-12-25T00:28:18.125Z,8.43
2018-12-25T00:30:48.110Z,8.30
2018-12-25T00:33:17.399Z,9.30
2018-12-25T00:35:46.840Z,9.30
2018-12-25T00:38:16.549Z,10.27
2018-12-25T00:40:45.782Z,9.70
2018-12-25T00:43:16.445Z,9.57
2018-12-25T00:45:46.151Z,9.17
2018-12-25T00:48:15.812Z,8.10
2018-12-25T00:50:45.088Z,9.97
2018-12-25T00:53:14.712Z,9.93
2018-12-25T00:55:44.398Z,9.50
2018-12-25T00:58:13.691Z,10.20
2018-12-25T01:00:43.304Z,10.37
2018-12-25T01:03:12.592Z,10.23
2018-12-25T01:05:41.995Z,8.77
2018-12-25T01:08:11.691Z,10.07
2018-12-25T01:10:40.967Z,10.90
2018-12-25T01:13:10.410Z,19.27
2018-12-25T01:15:39.845Z,9.97
2018-12-25T01:18:09.596Z,9.50
2018-12-25T01:20:39.011Z,9.27
2018-12-25T01:23:08.315Z,10.13
2018-12-25T01:25:37.702Z,10.20
2018-12-25T01:28:07.547Z,9.70
2018-12-25T01:30:36.821Z,9.77
2018-12-25T01:33:06.378Z,9.43
2018-12-25T01:35:35.879Z,11.13
2018-12-25T01:38:05.159Z,9.17
2018-12-25T01:40:34.698Z,10.33
2018-12-25T01:43:04.274Z,11.90
2018-12-25T01:45:33.884Z,9.60
2018-12-25T01:48:03.498Z,10.50
2018-12-25T01:50:32.793Z,9.37
2018-12-25T01:53:02.349Z,10.13
2018-12-25T01:55:31.615Z,9.57
2018-12-25T01:58:00.931Z,8.77
2018-12-25T02:00:30.211Z,9.47
2018-12-25T02:02:59.910Z,9.60
2018-12-25T02:05:29.198Z,8.93
2018-12-25T02:07:58.458Z,7.93
2018-12-25T02:10:28.494Z,10.00
2018-12-25T02:12:58.032Z,9.60
2018-12-25T02:15:27.324Z,9.70
2018-12-25T02:17:56.589Z,10.30
2018-12-25T02:20:26.237Z,10.87
2018-12-25T02:22:55.778Z,9.87
2018-12-25T02:25:25.346Z,9.37
2018-12-25T02:27:54.622Z,8.80
2018-12-25T02:30:23.918Z,9.07
2018-12-25T02:32:53.231Z,8.53
2018-12-25T02:35:22.560Z,10.37
2018-12-25T02:37:51.875Z,9.43
2018-12-25T02:40:21.172Z,9.40
2018-12-25T02:42:53.007Z,8.83
2018-12-25T02:45:22.321Z,8.80
2018-12-25T02:47:51.612Z,9.07
2018-12-25T02:50:20.869Z,9.23
2018-12-25T02:52:50.144Z,8.83
2018-12-25T02:55:19.827Z,9.70
2018-12-25T02:57:49.548Z,9.97
2018-12-25T03:00:19.408Z,8.40
2018-12-25T03:02:57.621Z,9.13
2018-12-25T03:05:26.875Z,9.37
2018-12-25T03:07:56.433Z,8.30
2018-12-25T03:10:25.712Z,8.60
2018-12-25T03:12:55.075Z,9.00
2018-12-25T03:15:24.375Z,8.40
2018-12-25T03:17:53.663Z,9.03
2018-12-25T03:20:22.954Z,8.47
2018-12-25T03:22:52.246Z,8.93
2018-12-25T03:25:21.584Z,8.53
2018-12-25T03:27:50.877Z,8.53
2018-12-25T03:30:20.208Z,9.03
2018-12-25T03:32:49.597Z,9.20
2018-12-25T03:35:18.878Z,8.30
2018-12-25T03:37:48.160Z,8.63
2018-12-25T03:40:17.464Z,8.20
2018-12-25T03:42:46.769Z,8.30
2018-12-25T03:45:16.045Z,8.43
2018-12-25T03:47:45.755Z,9.00
2018-12-25T03:50:15.041Z,8.53
2018-12-25T03:52:44.664Z,8.30
2018-12-25T03:55:14.380Z,7.70
2018-12-25T03:57:43.703Z,8.23
2018-12-25T04:00:12.992Z,8.73
2018-12-25T04:02:42.274Z,9.20
2018-12-25T04:05:11.532Z,8.87
2018-12-25T04:07:40.809Z,8.67
2018-12-25T04:10:10.460Z,7.80
2018-12-25T04:12:39.721Z,7.60
2018-12-25T04:15:09.001Z,8.90
2018-12-25T04:17:38.344Z,9.33
2018-12-25T04:20:08.274Z,8.27
2018-12-25T04:22:37.542Z,9.23
2018-12-25T04:25:06.825Z,9.03
2018-12-25T04:27:36.113Z,8.03
2018-12-25T04:30:05.668Z,8.80
2018-12-25T04:32:35.286Z,9.30
2018-12-25T04:35:04.973Z,8.53
2018-12-25T04:37:34.766Z,7.67
2018-12-25T04:40:04.165Z,8.03
2018-12-25T04:42:33.511Z,8.30
2018-12-25T04:45:03.057Z,8.57
2018-12-25T04:47:32.321Z,8.87
2018-12-25T04:50:01.660Z,9.33
2018-12-25T04:52:31.205Z,8.73
2018-12-25T04:55:00.462Z,8.80
2018-12-25T04:57:29.722Z,8.60
2018-12-25T04:59:59.272Z,9.03
2018-12-25T05:02:28.537Z,9.07
2018-12-25T05:04:57.827Z,9.33
2018-12-25T05:07:27.073Z,7.80
2018-12-25T05:09:56.728Z,8.50
2018-12-25T05:12:26.062Z,9.40
2018-12-25T05:14:55.663Z,9.60
2018-12-25T05:17:24.947Z,8.83
2018-12-25T05:19:54.227Z,9.10
2018-12-25T05:22:23.508Z,7.80
2018-12-25T05:24:52.794Z,8.67
2018-12-25T05:27:22.091Z,9.20
2018-12-25T05:29:51.547Z,9.23
2018-12-25T05:32:21.107Z,7.87
2018-12-25T05:34:50.790Z,8.27
2018-12-25T05:37:20.067Z,8.20
2018-12-25T05:39:49.421Z,8.20
2018-12-25T05:42:18.987Z,9.23
2018-12-25T05:44:48.268Z,8.63
2018-12-25T05:47:17.932Z,8.73
2018-12-25T05:49:47.338Z,8.93
2018-12-25T05:52:16.902Z,9.70
2018-12-25T05:54:46.243Z,10.37
2018-12-25T05:57:15.814Z,9.17
2018-12-25T05:59:45.814Z,8.60
2018-12-25T06:02:15.112Z,8.57
2018-12-25T06:04:44.733Z,8.70
2018-12-25T06:07:14.363Z,9.07
2018-12-25T06:09:43.744Z,8.73
2018-12-25T06:12:13.352Z,8.80
2018-12-25T06:14:42.619Z,8.97
2018-12-25T06:17:11.925Z,7.87
2018-12-25T06:19:41.309Z,8.40
2018-12-25T06:22:11.275Z,8.43
2018-12-25T06:24:40.526Z,9.53
2018-12-25T06:27:09.793Z,9.57
2018-12-25T06:29:39.083Z,9.10
2018-12-25T06:32:08.343Z,9.40
2018-12-25T06:34:43.031Z,8.67
2018-12-25T06:37:11.911Z,9.17
2018-12-25T06:39:41.202Z,9.07
2018-12-25T06:42:10.788Z,9.10
2018-12-25T06:44:40.391Z,8.87
2018-12-25T06:47:09.743Z,8.23
2018-12-25T06:49:39.308Z,8.73
2018-12-25T06:52:08.565Z,8.13
2018-12-25T06:54:39.432Z,8.83
2018-12-25T06:57:12.016Z,9.07
2018-12-25T06:59:41.342Z,8.37
2018-12-25T07:02:10.979Z,8.37
2018-12-25T07:04:40.374Z,9.37
2018-12-25T07:07:18.554Z,7.73
2018-12-25T07:09:48.132Z,7.03
2018-12-25T07:12:17.445Z,8.53
2018-12-25T07:14:46.731Z,7.87
2018-12-25T07:17:16.346Z,8.47
2018-12-25T07:19:46.236Z,8.93
2018-12-25T07:22:15.927Z,8.50
2018-12-25T07:24:45.559Z,8.30
2018-12-25T07:27:14.835Z,8.97
2018-12-25T07:29:44.134Z,7.90
2018-12-25T07:32:13.771Z,8.70
2018-12-25T07:34:43.391Z,8.20
2018-12-25T07:37:12.924Z,8.57
2018-12-25T07:39:42.254Z,7.73
2018-12-25T07:42:11.524Z,7.43
2018-12-25T07:44:40.920Z,8.47
2018-12-25T07:47:11.334Z,8.13
2018-12-25T07:49:41.004Z,9.33
2018-12-25T07:52:10.388Z,8.60
2018-12-25T07:54:39.657Z,8.57
2018-12-25T07:57:08.922Z,9.50
2018-12-25T07:59:38.535Z,9.20
2018-12-25T08:02:11.241Z,8.93
2018-12-25T08:04:40.907Z,8.47
2018-12-25T08:07:11.033Z,8.50
2018-12-25T08:09:40.682Z,8.23
2018-12-25T08:12:10.244Z,8.93
2018-12-25T08:14:40.112Z,10.00
2018-12-25T08:17:09.728Z,10.57
2018-12-25T08:19:39.394Z,11.37
2018-12-25T08:22:09.000Z,10.37
2018-12-25T08:24:38.330Z,10.70
2018-12-25T08:27:07.659Z,10.43
2018-12-25T08:29:37.086Z,8.53
2018-12-25T08:32:06.682Z,9.50
2018-12-25T08:34:35.967Z,9.20
2018-12-25T08:37:05.243Z,8.10
2018-12-25T08:39:35.209Z,8.77
2018-12-25T08:42:04.819Z,8.57
2018-12-25T08:44:34.465Z,9.03
2018-12-25T08:47:04.057Z,8.23
2018-12-25T08:49:33.356Z,7.90
2018-12-25T08:52:02.944Z,8.10
2018-12-25T08:54:32.535Z,9.40
2018-12-25T08:57:02.077Z,7.73
2018-12-25T08:59:31.794Z,8.40
2018-12-25T09:02:01.347Z,8.23
2018-12-25T09:04:30.969Z,8.40
2018-12-25T09:07:00.255Z,7.73
2018-12-25T09:09:29.558Z,16.53
2018-12-25T09:11:58.840Z,8.67
2018-12-25T09:14:28.131Z,9.80
2018-12-25T09:16:57.651Z,8.10
2018-12-25T09:19:26.952Z,8.47
2018-12-25T09:21:56.478Z,8.87
2018-12-25T09:24:25.992Z,7.60
2018-12-25T09:26:55.291Z,7.97
2018-12-25T09:29:25.046Z,8.17
2018-12-25T09:31:54.348Z,8.77
2018-12-25T09:34:23.652Z,8.90
2018-12-25T09:36:53.201Z,8.63
2018-12-25T09:39:22.726Z,8.63
2018-12-25T09:41:52.014Z,9.30
2018-12-25T09:44:21.652Z,8.43
2018-12-25T09:46:51.238Z,8.77
2018-12-25T09:49:20.547Z,8.17
2018-12-25T09:51:54.514Z,8.30
2018-12-25T09:54:21.522Z,9.13
2018-12-25T09:56:50.819Z,8.77
2018-12-25T09:59:20.079Z,7.97
2018-12-25T10:01:50.937Z,8.70
2018-12-25T10:04:20.680Z,8.57
2018-12-25T10:06:50.094Z,10.03
2018-12-25T10:09:19.384Z,8.73
2018-12-25T10:11:49.275Z,8.13
2018-12-25T10:14:18.571Z,8.57
2018-12-25T10:16:49.799Z,7.90
2018-12-25T10:19:19.206Z,7.73
2018-12-25T10:21:48.783Z,8.77
2018-12-25T10:24:18.347Z,8.90
2018-12-25T10:26:47.611Z,8.87
2018-12-25T10:29:17.324Z,8.43
2018-12-25T10:31:46.918Z,14.80
2018-12-25T10:34:16.219Z,8.87
2018-12-25T10:37:05.052Z,10.30
2018-12-25T10:39:33.976Z,9.17
2018-12-25T10:42:04.043Z,11.00
2018-12-25T10:44:34.488Z,10.73
2018-12-25T10:47:03.819Z,10.53
2018-12-25T10:49:33.192Z,10.20
2018-12-25T10:52:02.735Z,11.13
2018-12-25T10:54:32.315Z,13.07
2018-12-25T10:57:01.594Z,12.70
2018-12-25T10:59:30.922Z,12.83
2018-12-25T11:02:00.223Z,12.57
2018-12-25T11:04:30.482Z,12.70
2018-12-25T11:06:59.787Z,14.07
2018-12-25T11:09:29.098Z,13.77
2018-12-25T11:11:58.425Z,13.10
2018-12-25T11:14:28.027Z,17.77
2018-12-25T11:16:57.328Z,14.40
2018-12-25T11:19:26.891Z,15.67
2018-12-25T11:21:56.192Z,15.10
2018-12-25T11:24:25.783Z,15.23
2018-12-25T11:26:55.095Z,15.03
2018-12-25T11:29:24.799Z,15.20
2018-12-25T11:31:55.963Z,16.03
2018-12-25T11:34:32.091Z,15.10
2018-12-25T11:37:03.689Z,16.07
2018-12-25T11:39:49.588Z,15.17
2018-12-25T11:42:31.282Z,17.30
2018-12-25T11:48:03.270Z,15.20
2018-12-25T11:50:44.843Z,15.80
2018-12-25T11:53:20.655Z,15.83
2018-12-25T11:55:50.028Z,16.43
2018-12-25T11:58:19.639Z,16.47
2018-12-25T12:00:49.376Z,15.37
2018-12-25T12:03:18.694Z,16.57
2018-12-25T12:05:48.012Z,16.97
2018-12-25T12:08:17.586Z,15.03
2018-12-25T12:10:46.867Z,15.33
2018-12-25T12:13:16.471Z,14.90
2018-12-25T12:15:46.051Z,14.97
2018-12-25T12:18:15.454Z,14.67
2018-12-25T12:20:44.806Z,14.63
2018-12-25T12:23:14.843Z,13.87
2018-12-25T12:25:44.398Z,15.60
2018-12-25T12:28:13.694Z,15.37
2018-12-25T12:30:43.324Z,15.20
2018-12-25T12:33:12.619Z,14.60
2018-12-25T12:35:42.009Z,14.33
2018-12-25T12:38:11.939Z,15.67
2018-12-25T12:40:41.213Z,15.30
2018-12-25T12:43:10.601Z,14.70
2018-12-25T12:45:40.182Z,14.30
2018-12-25T12:48:09.480Z,13.87
2018-12-25T12:50:39.139Z,15.13
2018-12-25T12:53:22.259Z,14.73
2018-12-25T12:55:51.996Z,14.83
2018-12-25T12:58:21.554Z,13.87
2018-12-25T13:00:53.574Z,14.90
2018-12-25T13:03:22.897Z,14.87
2018-12-25T13:05:52.786Z,15.20
2018-12-25T13:08:22.073Z,13.77
2018-12-25T13:10:53.666Z,14.17
2018-12-25T13:13:23.552Z,14.17
2018-12-25T13:15:52.844Z,14.37
2018-12-25T13:18:22.366Z,13.60
2018-12-25T13:20:51.655Z,13.77
2018-12-25T13:23:21.195Z,13.13
2018-12-25T13:25:50.478Z,12.77
2018-12-25T13:28:20.151Z,12.77
2018-12-25T13:30:49.756Z,13.23
2018-12-25T13:33:19.067Z,13.33
2018-12-25T13:35:48.385Z,12.80
2018-12-25T13:38:19.820Z,13.47
2018-12-25T13:40:51.902Z,13.43
2018-12-25T13:43:21.371Z,13.60
2018-12-25T13:45:52.983Z,12.93
2018-12-25T13:48:22.355Z,13.60
2018-12-25T13:50:51.962Z,13.00
2018-12-25T13:53:21.336Z,12.30
2018-12-25T13:55:50.627Z,13.10
2018-12-25T13:58:19.936Z,13.10
2018-12-25T14:00:49.246Z,13.27
2018-12-25T14:03:19.376Z,14.30
2018-12-25T14:05:49.004Z,13.20
2018-12-25T14:08:20.399Z,12.87
2018-12-25T14:10:49.681Z,12.30
2018-12-25T14:13:19.327Z,12.13
2018-12-25T14:15:48.595Z,11.53
2018-12-25T14:18:18.260Z,11.97
2018-12-25T14:20:47.693Z,12.07
2018-12-25T14:23:16.979Z,13.33
2018-12-25T14:25:46.668Z,11.87
2018-12-25T14:28:16.317Z,12.17
2018-12-25T14:31:14.666Z,12.10
2018-12-25T14:37:08.228Z,11.70
2018-12-25T14:39:40.431Z,12.73
2018-12-25T15:01:31.442Z,11.90
2018-12-25T15:05:19.410Z,13.83
2018-12-25T15:07:52.843Z,14.33
2018-12-25T15:10:34.475Z,15.20
2018-12-25T15:13:07.286Z,14.87
2018-12-25T15:15:36.860Z,15.77
2018-12-25T15:18:07.879Z,15.47
2018-12-25T15:20:39.839Z,15.33
2018-12-25T15:23:09.459Z,13.13
2018-12-25T15:25:38.791Z,14.03
2018-12-25T15:28:08.370Z,14.20
2018-12-25T15:30:37.695Z,14.47
2018-12-25T15:33:08.638Z,13.40
2018-12-25T15:35:37.959Z,12.60
2018-12-25T15:38:07.310Z,12.80
2018-12-25T15:40:36.947Z,13.10
2018-12-25T15:43:06.573Z,13.50
2018-12-25T15:45:36.335Z,13.80
2018-12-25T15:48:05.705Z,12.80
2018-12-25T15:50:38.396Z,13.60
2018-12-25T15:53:07.733Z,12.37
2018-12-25T15:55:37.060Z,15.33
2018-12-25T15:58:06.942Z,13.67
2018-12-25T16:00:36.264Z,13.87
2018-12-25T16:03:05.606Z,14.60
2018-12-25T16:05:34.901Z,13.83
2018-12-25T16:08:04.314Z,14.40
2018-12-25T16:10:34.247Z,14.57
2018-12-25T16:13:03.527Z,15.30
2018-12-25T16:15:32.854Z,15.33
2018-12-25T16:18:02.573Z,16.53
2018-12-25T16:20:31.912Z,14.97
2018-12-25T16:23:01.193Z,16.23
2018-12-25T16:25:30.494Z,16.33
2018-12-25T16:27:59.773Z,16.67
2018-12-25T16:30:29.361Z,16.10
2018-12-25T16:32:58.906Z,16.97
2018-12-25T16:35:28.225Z,16.93
2018-12-25T16:37:58.088Z,17.70
2018-12-25T16:40:27.473Z,17.50
2018-12-25T16:42:56.853Z,15.77
2018-12-25T16:45:26.399Z,16.60
2018-12-25T16:47:55.734Z,15.90
2018-12-25T16:50:25.389Z,16.40
2018-12-25T16:52:54.995Z,17.23
2018-12-25T16:55:24.555Z,16.47
2018-12-25T16:57:54.195Z,17.07
2018-12-25T17:00:23.435Z,17.67
2018-12-25T17:02:52.813Z,15.93
2018-12-25T17:05:22.074Z,16.60
2018-12-25T17:07:51.395Z,18.83
2018-12-25T17:10:20.684Z,18.73
2018-12-25T17:12:50.608Z,19.63
2018-12-25T17:15:20.152Z,19.17
2018-12-25T17:17:50.006Z,18.73
2018-12-25T17:20:19.807Z,19.87
2018-12-25T17:22:49.387Z,19.70
2018-12-25T17:25:18.733Z,18.20
2018-12-25T17:27:48.288Z,17.63
2018-12-25T17:30:17.627Z,17.53
2018-12-25T17:32:47.012Z,17.57
2018-12-25T17:35:16.263Z,17.10
2018-12-25T17:37:45.998Z,15.77
2018-12-25T17:40:15.422Z,16.37
2018-12-25T17:42:44.943Z,17.23
2018-12-25T17:45:14.505Z,17.37
2018-12-25T17:47:43.818Z,17.90
2018-12-25T17:50:13.088Z,16.97
2018-12-25T17:52:42.679Z,18.60
2018-12-25T17:55:11.956Z,19.13
2018-12-25T17:57:41.263Z,20.67
2018-12-25T18:00:10.545Z,18.23
2018-12-25T18:02:40.230Z,18.50
2018-12-25T18:05:12.088Z,23.50
2018-12-25T18:07:40.590Z,20.47
2018-12-25T18:10:09.891Z,17.97
2018-12-25T18:12:39.261Z,16.47
2018-12-25T18:15:08.535Z,18.83
2018-12-25T18:17:37.903Z,20.63
2018-12-25T18:20:09.003Z,21.33
2018-12-25T18:22:38.291Z,20.07
2018-12-25T18:25:07.602Z,19.60
2018-12-25T18:27:37.284Z,17.70
2018-12-25T18:30:07.029Z,19.33
2018-12-25T18:32:36.661Z,19.00
2018-12-25T18:35:06.387Z,17.80
2018-12-25T18:37:35.808Z,20.20
2018-12-25T18:40:05.680Z,21.87
2018-12-25T18:42:35.247Z,20.83
2018-12-25T18:45:05.259Z,19.60
2018-12-25T18:47:34.537Z,19.93
2018-12-25T18:50:04.387Z,18.50
2018-12-25T18:52:34.015Z,21.10
2018-12-25T18:55:03.311Z,18.10
2018-12-25T18:57:33.021Z,17.93
2018-12-25T19:00:02.315Z,17.83
2018-12-25T19:02:31.614Z,18.70
2018-12-25T19:05:00.966Z,19.73
2018-12-25T19:07:30.543Z,17.33
2018-12-25T19:09:59.839Z,19.33
2018-12-25T19:12:29.130Z,18.50
2018-12-25T19:15:22.010Z,18.50
2018-12-25T19:17:52.300Z,17.70
2018-12-25T19:20:21.692Z,19.63
2018-12-25T19:22:51.335Z,21.17
2018-12-25T19:25:20.721Z,18.87
2018-12-25T19:27:50.640Z,20.20
2018-12-25T19:30:22.801Z,19.63
2018-12-25T19:32:52.067Z,18.90
2018-12-25T19:35:21.383Z,18.47
2018-12-25T19:37:50.676Z,21.70
2018-12-25T19:40:20.484Z,20.63
2018-12-25T19:42:50.607Z,18.43
2018-12-25T19:45:20.251Z,20.70
2018-12-25T19:47:49.864Z,21.30
2018-12-25T19:50:19.172Z,22.80
2018-12-25T19:52:48.862Z,22.33
2018-12-25T19:55:18.222Z,19.93
2018-12-25T19:57:47.507Z,19.37
2018-12-25T20:00:17.036Z,20.03
2018-12-25T20:02:52.871Z,21.07
2018-12-25T20:05:53.863Z,19.37
2018-12-25T20:09:04.839Z,19.50
2018-12-25T20:12:01.108Z,21.13
2018-12-25T20:15:08.604Z,25.33
2018-12-25T20:17:55.986Z,19.77
2018-12-25T20:21:15.246Z,20.73
2018-12-25T20:24:05.868Z,20.17
2018-12-25T20:27:18.236Z,21.87
2018-12-25T20:30:37.013Z,21.80
2018-12-25T20:34:00.909Z,21.83
2018-12-25T20:37:08.596Z,22.60
2018-12-25T20:40:13.758Z,19.57
2018-12-25T20:43:29.741Z,19.23
2018-12-25T20:46:55.780Z,20.07
2018-12-25T20:50:07.662Z,21.60
2018-12-25T20:53:07.148Z,23.80
2018-12-25T20:56:19.035Z,22.57
2018-12-25T20:59:31.132Z,23.50
2018-12-25T21:02:29.540Z,21.37
2018-12-25T21:05:58.347Z,22.87
2018-12-25T21:09:03.705Z,21.83
2018-12-25T21:12:08.982Z,23.23
2018-12-25T21:15:22.883Z,20.67
2018-12-25T21:18:38.734Z,21.97
2018-12-25T21:21:44.822Z,21.47
2018-12-25T21:24:50.014Z,20.80
2018-12-25T21:27:30.874Z,22.33
2018-12-25T21:30:02.642Z,22.70
2018-12-25T21:32:33.331Z,21.87
2018-12-25T21:35:19.305Z,18.77
2018-12-25T21:37:50.343Z,21.93
2018-12-25T21:40:19.637Z,21.47
2018-12-25T21:42:49.394Z,20.97
2018-12-25T21:45:18.931Z,23.40
2018-12-25T21:47:48.429Z,18.83
2018-12-25T21:50:17.853Z,23.67
2018-12-25T21:52:47.427Z,26.60
2018-12-25T21:55:18.830Z,26.73
2018-12-25T21:57:49.901Z,24.67
2018-12-25T22:00:20.471Z,24.67
2018-12-25T22:02:50.555Z,21.87
2018-12-25T22:05:20.918Z,25.00
2018-12-25T22:07:50.487Z,26.80
2018-12-25T22:10:20.094Z,26.97
2018-12-25T22:12:49.479Z,27.57
2018-12-25T22:15:20.052Z,24.93
2018-12-25T22:17:49.608Z,24.60
2018-12-25T22:20:28.122Z,23.10
2018-12-25T22:22:58.055Z,24.17
2018-12-25T22:25:27.621Z,23.23
2018-12-25T22:27:57.258Z,24.87
2018-12-25T22:30:26.595Z,23.10
2018-12-25T22:32:56.061Z,22.30
2018-12-25T22:35:26.011Z,21.73
2018-12-25T22:37:55.566Z,23.67
2018-12-25T22:40:24.938Z,23.30
2018-12-25T22:42:54.470Z,24.07
2018-12-25T22:45:25.987Z,23.37
2018-12-25T22:47:55.276Z,21.50
2018-12-25T22:50:24.881Z,22.70
2018-12-25T22:52:54.682Z,20.43
2018-12-25T22:55:23.971Z,21.37
2018-12-25T22:57:53.252Z,23.67
2018-12-25T23:00:22.551Z,21.93
2018-12-25T23:02:51.836Z,21.17
2018-12-25T23:05:21.451Z,21.57
2018-12-25T23:07:50.739Z,74.40
2018-12-25T23:10:20.285Z,21.03
2018-12-25T23:12:50.079Z,21.20
2018-12-25T23:15:19.368Z,17.53
2018-12-25T23:17:48.663Z,21.20
2018-12-25T23:20:18.613Z,23.27
2018-12-25T23:22:47.926Z,32.97
2018-12-25T23:25:17.386Z,23.93
2018-12-25T23:27:46.757Z,23.37
2018-12-25T23:30:16.098Z,23.07
2018-12-25T23:32:45.384Z,25.37
2018-12-25T23:35:14.655Z,24.70
2018-12-25T23:37:44.003Z,23.67
2018-12-25T23:40:13.404Z,24.60
2018-12-25T23:42:42.706Z,24.13
2018-12-25T23:45:12.426Z,28.20
2018-12-25T23:47:42.555Z,23.80
2018-12-25T23:50:12.094Z,25.63
2018-12-25T23:52:41.974Z,22.27
2018-12-25T23:55:11.269Z,24.83
2018-12-25T23:57:40.643Z,21.83
